createdAt,value
2023-08-12T00:07:57.267Z,12.13
2023-08-12T00:19:57.277Z,12.12
2023-08-12T00:31:57.310Z,12.09
2023-08-12T00:43:57.262Z,12.09
2023-08-12T00:55:57.293Z,12.08
2023-08-12T01:07:57.260Z,12.06
2023-08-12T01:19:57.268Z,12.04
2023-08-12T01:31:57.265Z,12.03
2023-08-12T01:43:57.262Z,12.02
2023-08-12T01:55:57.396Z,12.01
2023-08-12T02:07:57.463Z,11.98
2023-08-12T02:19:57.262Z,11.98
2023-08-12T02:31:57.300Z,11.97
2023-08-12T02:43:57.283Z,11.95
2023-08-12T02:55:57.265Z,11.94
2023-08-12T03:07:57.267Z,11.93
2023-08-12T03:19:57.266Z,11.91
2023-08-12T03:31:57.271Z,11.90
2023-08-12T03:43:57.269Z,11.89
2023-08-12T03:55:57.266Z,11.87
2023-08-12T04:07:57.257Z,11.86
2023-08-12T04:19:57.266Z,11.85
2023-08-12T04:31:57.284Z,11.83
2023-08-12T04:43:57.263Z,11.83
2023-08-12T04:55:57.272Z,11.80
2023-08-12T05:07:57.269Z,11.81
2023-08-12T05:19:57.433Z,11.80
2023-08-12T05:31:57.338Z,11.80
2023-08-12T05:43:57.254Z,11.80
2023-08-12T05:55:57.269Z,11.80
2023-08-12T06:07:57.270Z,11.82
2023-08-12T06:19:57.259Z,11.82
2023-08-12T06:31:57.369Z,11.81
2023-08-12T06:43:57.318Z,11.80
2023-08-12T06:55:57.391Z,11.80
2023-08-12T07:07:57.253Z,11.81
2023-08-12T07:19:57.278Z,11.80
2023-08-12T07:31:57.283Z,11.80
2023-08-12T07:43:57.747Z,11.81
2023-08-12T07:55:57.280Z,11.82
2023-08-12T08:07:57.279Z,11.85
2023-08-12T08:19:57.337Z,11.84
2023-08-12T08:31:57.377Z,11.86
2023-08-12T08:43:57.304Z,11.88
2023-08-12T08:56:01.432Z,11.94
2023-08-12T09:07:57.378Z,11.99
2023-08-12T09:19:57.256Z,12.00
2023-08-12T09:31:58.057Z,12.05
2023-08-12T09:43:57.282Z,12.07
2023-08-12T09:55:57.357Z,12.13
2023-08-12T10:07:57.327Z,12.15
2023-08-12T10:19:57.255Z,12.16
2023-08-12T10:31:57.285Z,12.41
2023-08-12T10:43:57.254Z,12.51
2023-08-12T10:55:57.274Z,12.60
2023-08-12T11:07:57.329Z,12.51
2023-08-12T11:19:57.259Z,12.49
2023-08-12T11:31:57.326Z,12.55
2023-08-12T11:43:57.257Z,12.53
2023-08-12T11:55:57.276Z,12.57
2023-08-12T12:07:57.282Z,12.60
2023-08-12T12:19:57.256Z,12.60
2023-08-12T12:31:57.290Z,12.61
2023-08-12T12:43:57.261Z,12.62
2023-08-12T12:55:57.381Z,12.62
2023-08-12T13:07:57.267Z,12.60
2023-08-12T13:19:57.387Z,12.59
2023-08-12T13:31:57.396Z,12.59
2023-08-12T13:43:57.401Z,12.59
2023-08-12T13:55:57.266Z,12.61
2023-08-12T14:07:57.276Z,12.58
2023-08-12T14:19:57.398Z,12.58
2023-08-12T14:31:57.375Z,12.60
2023-08-12T14:43:57.253Z,12.61
2023-08-12T14:55:57.315Z,12.62
2023-08-12T15:07:57.326Z,12.59
2023-08-12T15:19:57.285Z,12.61
2023-08-12T15:31:57.268Z,12.61
2023-08-12T15:43:57.272Z,12.60
2023-08-12T15:55:57.359Z,12.61
2023-08-12T16:07:58.660Z,12.58
2023-08-12T16:19:57.352Z,12.58
2023-08-12T16:31:57.314Z,12.57
2023-08-12T16:43:57.255Z,12.58
2023-08-12T16:55:57.504Z,12.60
2023-08-12T17:07:57.344Z,12.58
2023-08-12T17:19:57.366Z,12.58
2023-08-12T17:31:57.335Z,12.57
2023-08-12T17:43:57.355Z,12.57
2023-08-12T17:55:57.377Z,12.55
2023-08-12T18:07:57.269Z,12.54
2023-08-12T18:19:57.335Z,12.53
2023-08-12T18:31:57.356Z,12.51
2023-08-12T18:43:57.911Z,12.49
2023-08-12T18:55:57.420Z,12.48
2023-08-12T19:07:57.328Z,12.45
2023-08-12T19:19:57.397Z,12.45
2023-08-12T19:31:57.344Z,12.43
2023-08-12T19:43:57.257Z,12.41
2023-08-12T19:55:57.368Z,12.39
2023-08-12T20:07:57.382Z,12.37
2023-08-12T20:19:57.271Z,12.36
2023-08-12T20:31:57.269Z,12.35
2023-08-12T20:43:57.279Z,12.33
2023-08-12T20:55:57.319Z,12.32
2023-08-12T21:07:57.381Z,12.31
2023-08-12T21:19:57.751Z,12.29
2023-08-12T21:31:57.379Z,12.28
2023-08-12T21:43:57.382Z,12.27
2023-08-12T21:55:57.460Z,12.25
2023-08-12T22:07:57.271Z,12.23
2023-08-12T22:19:57.383Z,12.22
2023-08-12T22:31:57.345Z,12.20
2023-08-12T22:43:57.257Z,12.19
2023-08-12T22:55:57.283Z,12.17
2023-08-12T23:07:57.261Z,12.17
2023-08-12T23:19:57.250Z,12.15
2023-08-12T23:31:57.254Z,12.13
2023-08-12T23:43:57.279Z,12.11
2023-08-12T23:55:57.259Z,12.11
